sensor_id;sensor_type;location;lat;lon;timestamp;temperature;humidity
19622;DHT22;9958;33.196;-97.114;2023-08-06T00:00:29;40.10;46.20
19622;DHT22;9958;33.196;-97.114;2023-08-06T00:02:57;40.00;46.50
19622;DHT22;9958;33.196;-97.114;2023-08-06T00:05:26;40.00;46.90
19622;DHT22;9958;33.196;-97.114;2023-08-06T00:07:54;39.90;46.80
19622;DHT22;9958;33.196;-97.114;2023-08-06T00:10:24;39.80;46.90
19622;DHT22;9958;33.196;-97.114;2023-08-06T00:12:52;39.70;46.90
19622;DHT22;9958;33.196;-97.114;2023-08-06T00:15:21;39.60;47.10
19622;DHT22;9958;33.196;-97.114;2023-08-06T00:17:50;39.60;47.20
19622;DHT22;9958;33.196;-97.114;2023-08-06T00:20:18;39.50;47.60
19622;DHT22;9958;33.196;-97.114;2023-08-06T00:22:47;39.40;48.20
19622;DHT22;9958;33.196;-97.114;2023-08-06T00:25:15;39.30;48.40
19622;DHT22;9958;33.196;-97.114;2023-08-06T00:27:45;39.20;48.40
19622;DHT22;9958;33.196;-97.114;2023-08-06T00:30:13;39.10;48.20
19622;DHT22;9958;33.196;-97.114;2023-08-06T00:32:42;39.00;48.40
19622;DHT22;9958;33.196;-97.114;2023-08-06T00:35:11;38.90;48.40
19622;DHT22;9958;33.196;-97.114;2023-08-06T00:37:40;38.90;48.50
19622;DHT22;9958;33.196;-97.114;2023-08-06T00:40:08;38.80;48.80
19622;DHT22;9958;33.196;-97.114;2023-08-06T00:42:37;38.80;49.20
19622;DHT22;9958;33.196;-97.114;2023-08-06T00:45:07;38.60;49.20
19622;DHT22;9958;33.196;-97.114;2023-08-06T00:47:36;38.60;49.50
19622;DHT22;9958;33.196;-97.114;2023-08-06T00:50:07;38.50;49.60
19622;DHT22;9958;33.196;-97.114;2023-08-06T00:52:37;38.40;49.70
19622;DHT22;9958;33.196;-97.114;2023-08-06T00:55:06;38.40;50.00
19622;DHT22;9958;33.196;-97.114;2023-08-06T00:57:34;38.30;50.30
19622;DHT22;9958;33.196;-97.114;2023-08-06T01:00:03;38.20;50.40
19622;DHT22;9958;33.196;-97.114;2023-08-06T01:02:33;38.20;50.60
19622;DHT22;9958;33.196;-97.114;2023-08-06T01:05:02;38.20;50.90
19622;DHT22;9958;33.196;-97.114;2023-08-06T01:07:40;38.10;51.10
19622;DHT22;9958;33.196;-97.114;2023-08-06T01:10:20;38.00;51.20
19622;DHT22;9958;33.196;-97.114;2023-08-06T01:12:57;37.90;51.70
19622;DHT22;9958;33.196;-97.114;2023-08-06T01:15:31;37.80;51.70
19622;DHT22;9958;33.196;-97.114;2023-08-06T01:18:02;37.80;51.80
19622;DHT22;9958;33.196;-97.114;2023-08-06T01:20:32;37.70;52.00
19622;DHT22;9958;33.196;-97.114;2023-08-06T01:23:01;37.70;52.30
19622;DHT22;9958;33.196;-97.114;2023-08-06T01:25:33;37.60;52.40
19622;DHT22;9958;33.196;-97.114;2023-08-06T01:28:07;37.50;52.90
19622;DHT22;9958;33.196;-97.114;2023-08-06T01:30:41;37.50;52.50
19622;DHT22;9958;33.196;-97.114;2023-08-06T01:33:16;37.40;53.00
19622;DHT22;9958;33.196;-97.114;2023-08-06T01:35:49;37.30;53.30
19622;DHT22;9958;33.196;-97.114;2023-08-06T01:38:18;37.20;53.90
19622;DHT22;9958;33.196;-97.114;2023-08-06T01:40:46;37.10;52.90
19622;DHT22;9958;33.196;-97.114;2023-08-06T01:43:15;37.00;52.50
19622;DHT22;9958;33.196;-97.114;2023-08-06T01:45:43;37.00;53.10
19622;DHT22;9958;33.196;-97.114;2023-08-06T01:48:11;36.90;53.00
19622;DHT22;9958;33.196;-97.114;2023-08-06T01:50:39;36.90;53.00
19622;DHT22;9958;33.196;-97.114;2023-08-06T01:53:09;36.80;52.80
19622;DHT22;9958;33.196;-97.114;2023-08-06T01:55:38;36.80;53.00
19622;DHT22;9958;33.196;-97.114;2023-08-06T01:58:06;36.70;52.90
19622;DHT22;9958;33.196;-97.114;2023-08-06T02:00:34;36.70;52.90
19622;DHT22;9958;33.196;-97.114;2023-08-06T02:03:03;36.60;52.90
19622;DHT22;9958;33.196;-97.114;2023-08-06T02:05:31;36.60;52.90
19622;DHT22;9958;33.196;-97.114;2023-08-06T02:07:59;36.50;52.80
19622;DHT22;9958;33.196;-97.114;2023-08-06T02:10:29;36.50;52.90
19622;DHT22;9958;33.196;-97.114;2023-08-06T02:12:58;36.50;53.30
19622;DHT22;9958;33.196;-97.114;2023-08-06T02:15:26;36.40;53.30
19622;DHT22;9958;33.196;-97.114;2023-08-06T02:17:54;36.40;53.40
19622;DHT22;9958;33.196;-97.114;2023-08-06T02:20:23;36.30;53.50
19622;DHT22;9958;33.196;-97.114;2023-08-06T02:22:51;36.30;53.50
19622;DHT22;9958;33.196;-97.114;2023-08-06T02:25:19;36.20;53.80
19622;DHT22;9958;33.196;-97.114;2023-08-06T02:27:49;36.10;53.90
19622;DHT22;9958;33.196;-97.114;2023-08-06T02:30:18;36.10;53.90
19622;DHT22;9958;33.196;-97.114;2023-08-06T02:32:46;36.00;53.90
19622;DHT22;9958;33.196;-97.114;2023-08-06T02:35:14;36.00;54.10
19622;DHT22;9958;33.196;-97.114;2023-08-06T02:37:43;35.90;54.10
19622;DHT22;9958;33.196;-97.114;2023-08-06T02:40:11;35.90;53.80
19622;DHT22;9958;33.196;-97.114;2023-08-06T02:42:40;35.90;54.60
19622;DHT22;9958;33.196;-97.114;2023-08-06T02:45:10;35.80;54.20
19622;DHT22;9958;33.196;-97.114;2023-08-06T02:47:38;35.80;54.30
19622;DHT22;9958;33.196;-97.114;2023-08-06T02:50:07;35.70;54.00
19622;DHT22;9958;33.196;-97.114;2023-08-06T02:52:36;35.70;53.80
19622;DHT22;9958;33.196;-97.114;2023-08-06T02:55:06;35.70;54.20
19622;DHT22;9958;33.196;-97.114;2023-08-06T02:57:34;35.60;54.20
19622;DHT22;9958;33.196;-97.114;2023-08-06T03:00:03;35.60;54.10
19622;DHT22;9958;33.196;-97.114;2023-08-06T03:02:33;35.50;54.10
19622;DHT22;9958;33.196;-97.114;2023-08-06T03:05:01;35.50;54.20
19622;DHT22;9958;33.196;-97.114;2023-08-06T03:07:30;35.50;54.30
19622;DHT22;9958;33.196;-97.114;2023-08-06T03:09:59;35.50;54.50
19622;DHT22;9958;33.196;-97.114;2023-08-06T03:12:28;35.40;54.40
19622;DHT22;9958;33.196;-97.114;2023-08-06T03:14:56;35.40;54.20
19622;DHT22;9958;33.196;-97.114;2023-08-06T03:17:25;35.30;54.50
19622;DHT22;9958;33.196;-97.114;2023-08-06T03:19:55;35.30;54.80
19622;DHT22;9958;33.196;-97.114;2023-08-06T03:22:23;35.30;54.80
19622;DHT22;9958;33.196;-97.114;2023-08-06T03:24:51;35.20;55.10
19622;DHT22;9958;33.196;-97.114;2023-08-06T03:27:20;35.20;55.10
19622;DHT22;9958;33.196;-97.114;2023-08-06T03:29:49;35.10;55.20
19622;DHT22;9958;33.196;-97.114;2023-08-06T03:32:17;35.10;55.00
19622;DHT22;9958;33.196;-97.114;2023-08-06T03:34:46;35.10;55.00
19622;DHT22;9958;33.196;-97.114;2023-08-06T03:37:16;35.00;54.80
19622;DHT22;9958;33.196;-97.114;2023-08-06T03:39:44;35.00;54.80
19622;DHT22;9958;33.196;-97.114;2023-08-06T03:42:12;35.00;54.90
19622;DHT22;9958;33.196;-97.114;2023-08-06T03:44:41;35.00;54.90
19622;DHT22;9958;33.196;-97.114;2023-08-06T03:47:09;34.90;54.80
19622;DHT22;9958;33.196;-97.114;2023-08-06T03:49:37;34.90;55.00
19622;DHT22;9958;33.196;-97.114;2023-08-06T03:52:06;34.80;54.80
19622;DHT22;9958;33.196;-97.114;2023-08-06T03:54:36;34.80;54.90
19622;DHT22;9958;33.196;-97.114;2023-08-06T03:57:05;34.70;55.00
19622;DHT22;9958;33.196;-97.114;2023-08-06T03:59:34;34.70;55.00
19622;DHT22;9958;33.196;-97.114;2023-08-06T04:02:02;34.70;55.00
19622;DHT22;9958;33.196;-97.114;2023-08-06T04:04:31;34.70;55.10
19622;DHT22;9958;33.196;-97.114;2023-08-06T04:06:59;34.60;55.10
19622;DHT22;9958;33.196;-97.114;2023-08-06T04:09:28;34.60;55.10
19622;DHT22;9958;33.196;-97.114;2023-08-06T04:11:58;34.60;55.10
19622;DHT22;9958;33.196;-97.114;2023-08-06T04:14:28;34.60;55.60
19622;DHT22;9958;33.196;-97.114;2023-08-06T04:16:56;34.60;55.60
19622;DHT22;9958;33.196;-97.114;2023-08-06T04:19:25;34.50;55.40
19622;DHT22;9958;33.196;-97.114;2023-08-06T04:21:53;34.50;55.50
19622;DHT22;9958;33.196;-97.114;2023-08-06T04:24:21;34.40;55.50
19622;DHT22;9958;33.196;-97.114;2023-08-06T04:26:50;34.40;55.50
19622;DHT22;9958;33.196;-97.114;2023-08-06T04:29:19;34.30;55.90
19622;DHT22;9958;33.196;-97.114;2023-08-06T04:31:48;34.30;56.10
19622;DHT22;9958;33.196;-97.114;2023-08-06T04:34:16;34.20;56.10
19622;DHT22;9958;33.196;-97.114;2023-08-06T04:36:44;34.20;56.30
19622;DHT22;9958;33.196;-97.114;2023-08-06T04:39:12;34.20;56.30
19622;DHT22;9958;33.196;-97.114;2023-08-06T04:41:41;34.20;56.30
19622;DHT22;9958;33.196;-97.114;2023-08-06T04:44:09;34.10;56.30
19622;DHT22;9958;33.196;-97.114;2023-08-06T04:46:39;34.10;56.30
19622;DHT22;9958;33.196;-97.114;2023-08-06T04:49:07;34.00;56.20
19622;DHT22;9958;33.196;-97.114;2023-08-06T04:51:36;34.00;56.20
19622;DHT22;9958;33.196;-97.114;2023-08-06T04:54:05;33.90;56.10
19622;DHT22;9958;33.196;-97.114;2023-08-06T04:56:33;33.90;56.10
19622;DHT22;9958;33.196;-97.114;2023-08-06T04:59:01;33.90;56.20
19622;DHT22;9958;33.196;-97.114;2023-08-06T05:01:29;33.90;56.10
19622;DHT22;9958;33.196;-97.114;2023-08-06T05:03:59;33.80;56.20
19622;DHT22;9958;33.196;-97.114;2023-08-06T05:06:28;33.80;56.30
19622;DHT22;9958;33.196;-97.114;2023-08-06T05:08:56;33.80;56.40
19622;DHT22;9958;33.196;-97.114;2023-08-06T05:11:24;33.70;56.70
19622;DHT22;9958;33.196;-97.114;2023-08-06T05:13:53;33.70;56.90
19622;DHT22;9958;33.196;-97.114;2023-08-06T05:16:21;33.70;57.10
19622;DHT22;9958;33.196;-97.114;2023-08-06T05:18:49;33.60;57.20
19622;DHT22;9958;33.196;-97.114;2023-08-06T05:21:19;33.50;57.10
19622;DHT22;9958;33.196;-97.114;2023-08-06T05:23:48;33.50;57.30
19622;DHT22;9958;33.196;-97.114;2023-08-06T05:26:16;33.50;57.40
19622;DHT22;9958;33.196;-97.114;2023-08-06T05:28:45;33.40;57.40
19622;DHT22;9958;33.196;-97.114;2023-08-06T05:31:14;33.40;57.70
19622;DHT22;9958;33.196;-97.114;2023-08-06T05:33:42;33.30;58.00
19622;DHT22;9958;33.196;-97.114;2023-08-06T05:36:10;33.30;58.00
19622;DHT22;9958;33.196;-97.114;2023-08-06T05:38:40;33.30;58.20
19622;DHT22;9958;33.196;-97.114;2023-08-06T05:41:09;33.20;58.40
19622;DHT22;9958;33.196;-97.114;2023-08-06T05:43:37;33.10;58.50
19622;DHT22;9958;33.196;-97.114;2023-08-06T05:46:05;33.10;58.60
19622;DHT22;9958;33.196;-97.114;2023-08-06T05:48:33;33.10;58.90
19622;DHT22;9958;33.196;-97.114;2023-08-06T05:51:02;33.00;58.80
19622;DHT22;9958;33.196;-97.114;2023-08-06T05:53:30;33.00;58.90
19622;DHT22;9958;33.196;-97.114;2023-08-06T05:56:00;33.00;59.10
19622;DHT22;9958;33.196;-97.114;2023-08-06T05:58:28;32.90;59.20
19622;DHT22;9958;33.196;-97.114;2023-08-06T06:00:56;32.90;59.20
19622;DHT22;9958;33.196;-97.114;2023-08-06T06:03:25;32.80;59.20
19622;DHT22;9958;33.196;-97.114;2023-08-06T06:05:53;32.80;59.20
19622;DHT22;9958;33.196;-97.114;2023-08-06T06:08:22;32.80;59.40
19622;DHT22;9958;33.196;-97.114;2023-08-06T06:10:50;32.70;59.60
19622;DHT22;9958;33.196;-97.114;2023-08-06T06:13:20;32.70;59.90
19622;DHT22;9958;33.196;-97.114;2023-08-06T06:15:48;32.60;60.00
19622;DHT22;9958;33.196;-97.114;2023-08-06T06:18:16;32.50;60.10
19622;DHT22;9958;33.196;-97.114;2023-08-06T06:20:45;32.50;60.10
19622;DHT22;9958;33.196;-97.114;2023-08-06T06:23:13;32.50;60.10
19622;DHT22;9958;33.196;-97.114;2023-08-06T06:25:43;32.40;60.00
19622;DHT22;9958;33.196;-97.114;2023-08-06T06:28:11;32.40;60.00
19622;DHT22;9958;33.196;-97.114;2023-08-06T06:30:41;32.30;60.40
19622;DHT22;9958;33.196;-97.114;2023-08-06T06:33:10;32.30;60.60
19622;DHT22;9958;33.196;-97.114;2023-08-06T06:35:38;32.30;60.60
19622;DHT22;9958;33.196;-97.114;2023-08-06T06:38:06;32.20;61.00
19622;DHT22;9958;33.196;-97.114;2023-08-06T06:40:34;32.20;61.10
19622;DHT22;9958;33.196;-97.114;2023-08-06T06:43:03;32.10;61.50
19622;DHT22;9958;33.196;-97.114;2023-08-06T06:45:32;32.10;61.30
19622;DHT22;9958;33.196;-97.114;2023-08-06T06:48:02;32.10;61.60
19622;DHT22;9958;33.196;-97.114;2023-08-06T06:50:30;32.10;61.50
19622;DHT22;9958;33.196;-97.114;2023-08-06T06:52:58;32.10;61.40
19622;DHT22;9958;33.196;-97.114;2023-08-06T06:55:27;32.00;61.30
19622;DHT22;9958;33.196;-97.114;2023-08-06T06:57:55;31.90;61.30
19622;DHT22;9958;33.196;-97.114;2023-08-06T07:00:23;31.90;61.30
19622;DHT22;9958;33.196;-97.114;2023-08-06T07:02:51;31.90;61.20
19622;DHT22;9958;33.196;-97.114;2023-08-06T07:05:22;31.90;61.40
19622;DHT22;9958;33.196;-97.114;2023-08-06T07:07:51;31.90;61.80
19622;DHT22;9958;33.196;-97.114;2023-08-06T07:10:20;31.90;61.90
19622;DHT22;9958;33.196;-97.114;2023-08-06T07:12:48;31.80;62.10
19622;DHT22;9958;33.196;-97.114;2023-08-06T07:15:16;31.70;62.00
19622;DHT22;9958;33.196;-97.114;2023-08-06T07:17:45;31.70;61.80
19622;DHT22;9958;33.196;-97.114;2023-08-06T07:20:13;31.70;61.90
19622;DHT22;9958;33.196;-97.114;2023-08-06T07:22:44;31.60;62.30
19622;DHT22;9958;33.196;-97.114;2023-08-06T07:25:12;31.60;62.40
19622;DHT22;9958;33.196;-97.114;2023-08-06T07:27:41;31.60;62.30
19622;DHT22;9958;33.196;-97.114;2023-08-06T07:30:09;31.60;62.50
19622;DHT22;9958;33.196;-97.114;2023-08-06T07:32:38;31.60;62.70
19622;DHT22;9958;33.196;-97.114;2023-08-06T07:35:07;31.60;62.70
19622;DHT22;9958;33.196;-97.114;2023-08-06T07:37:38;31.50;62.70
19622;DHT22;9958;33.196;-97.114;2023-08-06T07:40:09;31.50;62.70
19622;DHT22;9958;33.196;-97.114;2023-08-06T07:42:38;31.50;62.70
19622;DHT22;9958;33.196;-97.114;2023-08-06T07:45:08;31.50;63.40
19622;DHT22;9958;33.196;-97.114;2023-08-06T07:47:36;31.50;62.70
19622;DHT22;9958;33.196;-97.114;2023-08-06T07:50:05;31.50;63.10
19622;DHT22;9958;33.196;-97.114;2023-08-06T07:52:34;31.40;63.50
19622;DHT22;9958;33.196;-97.114;2023-08-06T07:55:02;31.40;63.50
19622;DHT22;9958;33.196;-97.114;2023-08-06T07:57:32;31.40;63.50
19622;DHT22;9958;33.196;-97.114;2023-08-06T08:00:01;31.40;63.50
19622;DHT22;9958;33.196;-97.114;2023-08-06T08:02:30;31.40;63.60
19622;DHT22;9958;33.196;-97.114;2023-08-06T08:04:58;31.40;63.90
19622;DHT22;9958;33.196;-97.114;2023-08-06T08:07:26;31.30;63.80
19622;DHT22;9958;33.196;-97.114;2023-08-06T08:09:56;31.40;64.20
19622;DHT22;9958;33.196;-97.114;2023-08-06T08:12:25;31.40;64.30
19622;DHT22;9958;33.196;-97.114;2023-08-06T08:14:55;31.40;64.30
19622;DHT22;9958;33.196;-97.114;2023-08-06T08:17:23;31.40;64.70
19622;DHT22;9958;33.196;-97.114;2023-08-06T08:19:51;31.40;64.90
19622;DHT22;9958;33.196;-97.114;2023-08-06T08:22:20;31.40;65.00
19622;DHT22;9958;33.196;-97.114;2023-08-06T08:24:48;31.40;65.30
19622;DHT22;9958;33.196;-97.114;2023-08-06T08:27:16;31.40;65.40
19622;DHT22;9958;33.196;-97.114;2023-08-06T08:29:45;31.40;65.60
19622;DHT22;9958;33.196;-97.114;2023-08-06T08:32:14;31.40;65.60
19622;DHT22;9958;33.196;-97.114;2023-08-06T08:34:43;31.40;65.80
19622;DHT22;9958;33.196;-97.114;2023-08-06T08:37:13;31.40;66.00
19622;DHT22;9958;33.196;-97.114;2023-08-06T08:39:41;31.40;66.10
19622;DHT22;9958;33.196;-97.114;2023-08-06T08:42:10;31.40;66.30
19622;DHT22;9958;33.196;-97.114;2023-08-06T08:44:39;31.40;66.40
19622;DHT22;9958;33.196;-97.114;2023-08-06T08:47:08;31.40;66.70
19622;DHT22;9958;33.196;-97.114;2023-08-06T08:49:38;31.30;66.80
19622;DHT22;9958;33.196;-97.114;2023-08-06T08:52:06;31.40;66.80
19622;DHT22;9958;33.196;-97.114;2023-08-06T08:54:38;31.30;67.00
19622;DHT22;9958;33.196;-97.114;2023-08-06T08:57:06;31.30;67.50
19622;DHT22;9958;33.196;-97.114;2023-08-06T08:59:35;31.20;67.50
19622;DHT22;9958;33.196;-97.114;2023-08-06T09:02:03;31.20;67.90
19622;DHT22;9958;33.196;-97.114;2023-08-06T09:04:33;31.20;68.80
19622;DHT22;9958;33.196;-97.114;2023-08-06T09:07:05;31.10;68.00
19622;DHT22;9958;33.196;-97.114;2023-08-06T09:09:34;31.10;69.00
19622;DHT22;9958;33.196;-97.114;2023-08-06T09:12:12;31.00;68.10
19622;DHT22;9958;33.196;-97.114;2023-08-06T09:14:42;31.00;68.60
19622;DHT22;9958;33.196;-97.114;2023-08-06T09:17:10;30.90;69.00
19622;DHT22;9958;33.196;-97.114;2023-08-06T09:19:42;30.90;69.10
19622;DHT22;9958;33.196;-97.114;2023-08-06T09:22:15;30.80;69.60
19622;DHT22;9958;33.196;-97.114;2023-08-06T09:24:43;30.80;69.80
19622;DHT22;9958;33.196;-97.114;2023-08-06T09:27:12;30.70;69.90
19622;DHT22;9958;33.196;-97.114;2023-08-06T09:29:42;30.70;70.10
19622;DHT22;9958;33.196;-97.114;2023-08-06T09:32:11;30.60;70.60
19622;DHT22;9958;33.196;-97.114;2023-08-06T09:37:09;30.50;71.10
19622;DHT22;9958;33.196;-97.114;2023-08-06T09:39:40;30.50;71.80
19622;DHT22;9958;33.196;-97.114;2023-08-06T09:42:09;30.40;72.00
19622;DHT22;9958;33.196;-97.114;2023-08-06T09:44:41;30.40;72.30
19622;DHT22;9958;33.196;-97.114;2023-08-06T09:47:09;30.30;72.60
19622;DHT22;9958;33.196;-97.114;2023-08-06T09:49:43;30.30;72.90
19622;DHT22;9958;33.196;-97.114;2023-08-06T09:52:12;30.20;72.90
19622;DHT22;9958;33.196;-97.114;2023-08-06T09:54:44;30.20;73.50
19622;DHT22;9958;33.196;-97.114;2023-08-06T09:57:12;30.10;73.90
19622;DHT22;9958;33.196;-97.114;2023-08-06T09:59:43;30.10;74.20
19622;DHT22;9958;33.196;-97.114;2023-08-06T10:02:13;30.00;74.30
19622;DHT22;9958;33.196;-97.114;2023-08-06T10:04:45;30.00;74.40
19622;DHT22;9958;33.196;-97.114;2023-08-06T10:07:14;30.00;74.60
19622;DHT22;9958;33.196;-97.114;2023-08-06T10:09:46;30.00;74.80
19622;DHT22;9958;33.196;-97.114;2023-08-06T10:12:15;29.90;75.00
19622;DHT22;9958;33.196;-97.114;2023-08-06T10:14:46;29.90;74.90
19622;DHT22;9958;33.196;-97.114;2023-08-06T10:17:16;29.90;75.00
19622;DHT22;9958;33.196;-97.114;2023-08-06T10:19:45;29.80;74.90
19622;DHT22;9958;33.196;-97.114;2023-08-06T10:22:15;29.80;75.30
19622;DHT22;9958;33.196;-97.114;2023-08-06T10:24:52;29.80;75.50
19622;DHT22;9958;33.196;-97.114;2023-08-06T10:27:29;29.80;75.80
19622;DHT22;9958;33.196;-97.114;2023-08-06T10:30:22;29.70;75.70
19622;DHT22;9958;33.196;-97.114;2023-08-06T10:32:51;29.80;76.00
19622;DHT22;9958;33.196;-97.114;2023-08-06T10:35:37;29.70;76.10
19622;DHT22;9958;33.196;-97.114;2023-08-06T10:38:09;29.70;76.60
19622;DHT22;9958;33.196;-97.114;2023-08-06T10:40:40;29.70;76.60
19622;DHT22;9958;33.196;-97.114;2023-08-06T10:43:25;29.70;77.20
19622;DHT22;9958;33.196;-97.114;2023-08-06T10:45:54;29.70;77.60
19622;DHT22;9958;33.196;-97.114;2023-08-06T10:48:34;29.60;77.80
19622;DHT22;9958;33.196;-97.114;2023-08-06T10:51:03;29.70;78.20
19622;DHT22;9958;33.196;-97.114;2023-08-06T10:53:32;29.60;77.90
19622;DHT22;9958;33.196;-97.114;2023-08-06T10:56:02;29.60;77.70
19622;DHT22;9958;33.196;-97.114;2023-08-06T10:58:39;29.60;78.00
19622;DHT22;9958;33.196;-97.114;2023-08-06T11:01:08;29.60;78.10
19622;DHT22;9958;33.196;-97.114;2023-08-06T11:03:37;29.60;78.50
19622;DHT22;9958;33.196;-97.114;2023-08-06T11:06:07;29.60;78.70
19622;DHT22;9958;33.196;-97.114;2023-08-06T11:08:37;29.60;79.10
19622;DHT22;9958;33.196;-97.114;2023-08-06T11:11:10;29.60;79.30
19622;DHT22;9958;33.196;-97.114;2023-08-06T11:13:39;29.60;79.20
19622;DHT22;9958;33.196;-97.114;2023-08-06T11:16:08;29.60;79.60
19622;DHT22;9958;33.196;-97.114;2023-08-06T11:18:36;29.50;79.50
19622;DHT22;9958;33.196;-97.114;2023-08-06T11:21:05;29.50;79.70
19622;DHT22;9958;33.196;-97.114;2023-08-06T11:23:34;29.50;80.00
19622;DHT22;9958;33.196;-97.114;2023-08-06T11:26:03;29.50;80.20
19622;DHT22;9958;33.196;-97.114;2023-08-06T11:28:32;29.50;80.60
19622;DHT22;9958;33.196;-97.114;2023-08-06T11:31:01;29.50;80.80
19622;DHT22;9958;33.196;-97.114;2023-08-06T11:33:30;29.50;81.20
19622;DHT22;9958;33.196;-97.114;2023-08-06T11:35:59;29.50;81.50
19622;DHT22;9958;33.196;-97.114;2023-08-06T11:38:28;29.50;81.70
19622;DHT22;9958;33.196;-97.114;2023-08-06T11:40:56;29.50;81.60
19622;DHT22;9958;33.196;-97.114;2023-08-06T11:43:25;29.50;82.50
19622;DHT22;9958;33.196;-97.114;2023-08-06T11:45:56;29.50;81.70
19622;DHT22;9958;33.196;-97.114;2023-08-06T11:48:25;29.50;81.80
19622;DHT22;9958;33.196;-97.114;2023-08-06T11:50:55;29.50;81.50
19622;DHT22;9958;33.196;-97.114;2023-08-06T11:53:27;29.50;81.70
19622;DHT22;9958;33.196;-97.114;2023-08-06T11:55:57;29.50;82.00
19622;DHT22;9958;33.196;-97.114;2023-08-06T11:58:25;29.50;82.50
19622;DHT22;9958;33.196;-97.114;2023-08-06T12:00:56;29.50;82.50
19622;DHT22;9958;33.196;-97.114;2023-08-06T12:03:24;29.50;82.50
19622;DHT22;9958;33.196;-97.114;2023-08-06T12:05:54;29.50;82.50
19622;DHT22;9958;33.196;-97.114;2023-08-06T12:08:26;29.60;82.60
19622;DHT22;9958;33.196;-97.114;2023-08-06T12:10:55;29.60;82.60
19622;DHT22;9958;33.196;-97.114;2023-08-06T12:13:23;29.60;82.60
19622;DHT22;9958;33.196;-97.114;2023-08-06T12:15:51;29.60;82.60
19622;DHT22;9958;33.196;-97.114;2023-08-06T12:18:21;29.60;82.70
19622;DHT22;9958;33.196;-97.114;2023-08-06T12:20:49;29.60;82.50
19622;DHT22;9958;33.196;-97.114;2023-08-06T12:23:18;29.60;82.60
19622;DHT22;9958;33.196;-97.114;2023-08-06T12:25:46;29.70;82.70
19622;DHT22;9958;33.196;-97.114;2023-08-06T12:28:16;29.70;82.70
19622;DHT22;9958;33.196;-97.114;2023-08-06T12:30:44;29.80;82.70
19622;DHT22;9958;33.196;-97.114;2023-08-06T12:33:12;29.90;82.80
19622;DHT22;9958;33.196;-97.114;2023-08-06T12:35:42;30.00;82.50
19622;DHT22;9958;33.196;-97.114;2023-08-06T12:38:10;30.10;82.20
19622;DHT22;9958;33.196;-97.114;2023-08-06T12:40:40;30.20;81.90
19622;DHT22;9958;33.196;-97.114;2023-08-06T12:43:08;30.40;81.20
19622;DHT22;9958;33.196;-97.114;2023-08-06T12:45:36;30.50;80.70
19622;DHT22;9958;33.196;-97.114;2023-08-06T12:48:05;30.60;80.40
19622;DHT22;9958;33.196;-97.114;2023-08-06T12:50:33;30.60;80.50
19622;DHT22;9958;33.196;-97.114;2023-08-06T12:53:03;30.60;80.40
19622;DHT22;9958;33.196;-97.114;2023-08-06T12:55:31;30.60;80.40
19622;DHT22;9958;33.196;-97.114;2023-08-06T12:58:00;30.60;80.80
19622;DHT22;9958;33.196;-97.114;2023-08-06T13:00:28;30.60;81.20
19622;DHT22;9958;33.196;-97.114;2023-08-06T13:02:57;30.60;81.40
19622;DHT22;9958;33.196;-97.114;2023-08-06T13:05:25;30.50;81.20
19622;DHT22;9958;33.196;-97.114;2023-08-06T13:07:53;30.50;81.00
19622;DHT22;9958;33.196;-97.114;2023-08-06T13:10:23;30.60;81.00
19622;DHT22;9958;33.196;-97.114;2023-08-06T13:12:53;30.60;80.30
19622;DHT22;9958;33.196;-97.114;2023-08-06T13:15:21;30.70;80.60
19622;DHT22;9958;33.196;-97.114;2023-08-06T13:17:50;30.80;80.90
19622;DHT22;9958;33.196;-97.114;2023-08-06T13:20:18;30.80;81.50
19622;DHT22;9958;33.196;-97.114;2023-08-06T13:22:47;30.90;82.10
19622;DHT22;9958;33.196;-97.114;2023-08-06T13:25:16;30.90;82.30
19622;DHT22;9958;33.196;-97.114;2023-08-06T13:27:47;31.00;81.70
19622;DHT22;9958;33.196;-97.114;2023-08-06T13:30:16;31.10;81.30
19622;DHT22;9958;33.196;-97.114;2023-08-06T13:32:45;31.10;80.80
19622;DHT22;9958;33.196;-97.114;2023-08-06T13:35:13;31.10;80.60
19622;DHT22;9958;33.196;-97.114;2023-08-06T13:37:41;31.20;79.60
19622;DHT22;9958;33.196;-97.114;2023-08-06T13:40:10;31.30;79.90
19622;DHT22;9958;33.196;-97.114;2023-08-06T13:42:38;31.50;78.50
19622;DHT22;9958;33.196;-97.114;2023-08-06T13:45:09;31.70;78.20
19622;DHT22;9958;33.196;-97.114;2023-08-06T13:47:37;31.90;77.40
19622;DHT22;9958;33.196;-97.114;2023-08-06T13:50:06;32.20;77.00
19622;DHT22;9958;33.196;-97.114;2023-08-06T13:52:35;32.40;76.20
19622;DHT22;9958;33.196;-97.114;2023-08-06T13:55:04;32.60;74.90
19622;DHT22;9958;33.196;-97.114;2023-08-06T13:57:32;32.80;73.90
19622;DHT22;9958;33.196;-97.114;2023-08-06T14:00:00;32.90;72.00
19622;DHT22;9958;33.196;-97.114;2023-08-06T14:02:30;33.10;71.20
19622;DHT22;9958;33.196;-97.114;2023-08-06T14:04:59;33.20;70.60
19622;DHT22;9958;33.196;-97.114;2023-08-06T14:07:27;33.40;69.60
19622;DHT22;9958;33.196;-97.114;2023-08-06T14:09:55;33.60;69.30
19622;DHT22;9958;33.196;-97.114;2023-08-06T14:12:24;33.70;67.60
19622;DHT22;9958;33.196;-97.114;2023-08-06T14:14:53;34.00;67.50
19622;DHT22;9958;33.196;-97.114;2023-08-06T14:17:21;34.10;65.70
19622;DHT22;9958;33.196;-97.114;2023-08-06T14:19:51;34.20;64.10
19622;DHT22;9958;33.196;-97.114;2023-08-06T14:22:19;34.40;64.90
19622;DHT22;9958;33.196;-97.114;2023-08-06T14:24:47;34.50;64.60
19622;DHT22;9958;33.196;-97.114;2023-08-06T14:27:16;34.60;65.00
19622;DHT22;9958;33.196;-97.114;2023-08-06T14:29:44;34.70;65.90
19622;DHT22;9958;33.196;-97.114;2023-08-06T14:32:12;34.80;66.60
19622;DHT22;9958;33.196;-97.114;2023-08-06T14:34:44;34.90;66.40
19622;DHT22;9958;33.196;-97.114;2023-08-06T14:37:14;34.90;66.30
19622;DHT22;9958;33.196;-97.114;2023-08-06T14:39:42;35.10;66.60
19622;DHT22;9958;33.196;-97.114;2023-08-06T14:42:11;35.10;66.30
19622;DHT22;9958;33.196;-97.114;2023-08-06T14:44:39;35.10;65.70
19622;DHT22;9958;33.196;-97.114;2023-08-06T14:47:07;35.00;65.30
19622;DHT22;9958;33.196;-97.114;2023-08-06T14:49:36;35.00;65.40
19622;DHT22;9958;33.196;-97.114;2023-08-06T14:52:05;35.10;65.60
19622;DHT22;9958;33.196;-97.114;2023-08-06T14:54:35;35.10;65.70
19622;DHT22;9958;33.196;-97.114;2023-08-06T14:57:04;34.90;65.60
19622;DHT22;9958;33.196;-97.114;2023-08-06T14:59:33;34.90;65.80
19622;DHT22;9958;33.196;-97.114;2023-08-06T15:02:01;34.80;66.10
19622;DHT22;9958;33.196;-97.114;2023-08-06T15:04:30;34.80;66.10
19622;DHT22;9958;33.196;-97.114;2023-08-06T15:06:58;34.80;66.30
19622;DHT22;9958;33.196;-97.114;2023-08-06T15:09:26;34.60;66.30
19622;DHT22;9958;33.196;-97.114;2023-08-06T15:11:56;34.40;66.20
19622;DHT22;9958;33.196;-97.114;2023-08-06T15:14:24;34.50;66.50
19622;DHT22;9958;33.196;-97.114;2023-08-06T15:16:53;34.50;66.10
19622;DHT22;9958;33.196;-97.114;2023-08-06T15:19:23;34.60;66.00
19622;DHT22;9958;33.196;-97.114;2023-08-06T15:21:51;34.50;65.80
19622;DHT22;9958;33.196;-97.114;2023-08-06T15:24:21;34.40;65.70
19622;DHT22;9958;33.196;-97.114;2023-08-06T15:26:49;34.30;65.90
19622;DHT22;9958;33.196;-97.114;2023-08-06T15:29:19;34.30;66.50